createdAt,value
2023-04-16T00:03:29.416Z,87.35
2023-04-16T00:08:35.744Z,87.66
2023-04-16T00:13:39.190Z,87.69
2023-04-16T00:18:43.408Z,88.25
2023-04-16T00:23:48.212Z,88.30
2023-04-16T00:28:51.633Z,88.55
2023-04-16T00:33:55.261Z,88.64
2023-04-16T00:39:00.132Z,88.47
2023-04-16T00:44:04.096Z,88.62
2023-04-16T00:49:07.944Z,88.93
2023-04-16T00:54:14.153Z,88.76
2023-04-16T00:59:18.084Z,89.33
2023-04-16T01:04:22.036Z,89.15
2023-04-16T01:09:27.098Z,89.02
2023-04-16T01:14:32.011Z,89.30
2023-04-16T01:19:36.411Z,89.83
2023-04-16T01:24:41.946Z,89.44
2023-04-16T01:29:47.309Z,89.00
2023-04-16T01:34:57.461Z,89.20
2023-04-16T01:40:02.795Z,89.96
2023-04-16T01:45:08.828Z,89.95
2023-04-16T01:50:12.933Z,89.58
2023-04-16T01:55:17.887Z,89.01
2023-04-16T02:00:21.816Z,87.40
2023-04-16T02:05:25.215Z,86.76
2023-04-16T02:10:30.784Z,87.38
2023-04-16T02:15:35.384Z,87.09
2023-04-16T02:20:41.891Z,87.26
2023-04-16T02:25:47.984Z,87.57
2023-04-16T02:30:52.881Z,87.42
2023-04-16T02:35:57.902Z,87.49
2023-04-16T02:41:02.903Z,87.10
2023-04-16T02:46:06.465Z,86.82
2023-04-16T02:51:10.388Z,86.09
2023-04-16T02:56:15.227Z,86.23
2023-04-16T03:01:19.190Z,86.13
2023-04-16T03:06:22.681Z,86.81
2023-04-16T03:11:27.505Z,86.79
2023-04-16T03:16:31.582Z,86.72
2023-04-16T03:21:35.339Z,86.94
2023-04-16T03:26:40.484Z,86.53
2023-04-16T03:31:44.162Z,85.95
2023-04-16T03:36:47.605Z,86.59
2023-04-16T03:41:52.617Z,86.85
2023-04-16T03:46:56.268Z,86.55
2023-04-16T03:52:00.280Z,86.17
2023-04-16T03:57:05.477Z,85.74
2023-04-16T04:02:09.958Z,85.39
2023-04-16T04:07:13.767Z,85.84
2023-04-16T04:12:19.067Z,86.06
2023-04-16T04:17:23.687Z,86.29
2023-04-16T04:22:27.931Z,86.17
2023-04-16T04:27:33.204Z,86.49
2023-04-16T04:32:36.968Z,87.26
2023-04-16T04:37:40.890Z,88.01
2023-04-16T04:42:52.565Z,89.23
2023-04-16T04:47:59.362Z,89.19
2023-04-16T04:53:04.723Z,89.29
2023-04-16T04:58:10.562Z,89.33
2023-04-16T05:03:22.008Z,89.03
2023-04-16T05:08:25.833Z,89.83
2023-04-16T05:13:30.966Z,90.34
2023-04-16T05:18:34.627Z,91.01
2023-04-16T05:23:38.432Z,90.81
2023-04-16T05:28:43.291Z,90.22
2023-04-16T05:33:46.758Z,89.72
2023-04-16T05:38:50.171Z,88.87
2023-04-16T05:43:55.390Z,88.93
2023-04-16T05:48:58.802Z,88.28
2023-04-16T05:54:02.244Z,87.88
2023-04-16T05:59:07.407Z,87.93
2023-04-16T06:04:11.361Z,87.86
2023-04-16T06:09:14.893Z,87.22
2023-04-16T06:14:19.823Z,86.07
2023-04-16T06:19:23.267Z,85.71
2023-04-16T06:24:26.710Z,84.07
2023-04-16T06:29:40.581Z,83.37
2023-04-16T06:34:44.653Z,83.46
2023-04-16T06:39:48.190Z,83.51
2023-04-16T06:44:53.171Z,82.34
2023-04-16T06:49:56.858Z,78.37
2023-04-16T06:55:00.700Z,77.91
2023-04-16T07:00:06.346Z,76.45
2023-04-16T07:05:10.207Z,74.81
2023-04-16T07:10:14.113Z,74.69
2023-04-16T07:15:19.343Z,73.60
2023-04-16T07:20:23.189Z,72.21
2023-04-16T07:25:26.979Z,73.80
2023-04-16T07:30:34.340Z,74.38
2023-04-16T07:35:37.786Z,74.07
2023-04-16T07:40:41.233Z,74.24
2023-04-16T07:45:46.391Z,73.16
2023-04-16T07:50:50.329Z,73.74
2023-04-16T07:55:53.837Z,73.44
2023-04-16T08:00:59.698Z,71.24
2023-04-16T08:06:03.636Z,70.05
2023-04-16T08:11:07.096Z,68.74
2023-04-16T08:16:12.302Z,67.03
2023-04-16T08:21:15.871Z,66.25
2023-04-16T08:26:19.608Z,64.54
2023-04-16T08:31:24.596Z,64.56
2023-04-16T08:36:28.324Z,62.67
2023-04-16T08:41:33.558Z,61.34
2023-04-16T08:46:39.514Z,61.61
2023-04-16T08:51:47.092Z,62.49
2023-04-16T08:56:52.435Z,61.95
2023-04-16T09:02:00.123Z,59.15
2023-04-16T09:07:06.222Z,59.89
2023-04-16T09:12:10.681Z,57.83
2023-04-16T09:17:16.967Z,57.25
2023-04-16T09:22:20.891Z,58.84
2023-04-16T09:27:26.075Z,59.26
2023-04-16T09:32:31.236Z,57.04
2023-04-16T09:37:34.978Z,55.88
2023-04-16T09:42:38.605Z,55.88
2023-04-16T09:47:45.318Z,55.42
2023-04-16T09:52:51.312Z,54.71
2023-04-16T09:58:01.237Z,53.18
2023-04-16T10:03:07.322Z,51.63
2023-04-16T10:08:14.946Z,49.67
2023-04-16T10:13:19.284Z,50.96
2023-04-16T10:18:24.504Z,49.39
2023-04-16T10:23:28.361Z,47.73
2023-04-16T10:28:32.267Z,48.31
2023-04-16T10:33:40.625Z,49.16
2023-04-16T10:38:48.452Z,49.48
2023-04-16T10:43:52.502Z,48.63
2023-04-16T10:49:01.837Z,50.55
2023-04-16T10:54:20.635Z,51.86
2023-04-16T10:59:25.167Z,51.34
2023-04-16T11:04:35.525Z,53.36
2023-04-16T11:10:05.531Z,51.71
2023-04-16T11:15:12.112Z,52.91
2023-04-16T11:20:20.914Z,51.82
2023-04-16T11:25:27.407Z,53.51
2023-04-16T11:30:33.362Z,54.13
2023-04-16T11:35:39.372Z,53.84
2023-04-16T11:40:43.982Z,53.84
2023-04-16T11:45:58.184Z,56.99
2023-04-16T11:51:03.398Z,57.94
2023-04-16T11:56:07.248Z,58.59
2023-04-16T12:01:11.642Z,59.34
2023-04-16T12:06:16.547Z,58.67
2023-04-16T12:11:20.051Z,59.63
2023-04-16T12:16:23.785Z,58.19
2023-04-16T12:21:38.055Z,58.67
2023-04-16T12:26:43.598Z,56.06
2023-04-16T12:31:47.580Z,55.98
2023-04-16T12:37:09.568Z,57.11
2023-04-16T12:42:12.983Z,53.16
2023-04-16T12:47:16.684Z,54.56
2023-04-16T12:52:23.807Z,54.74
2023-04-16T12:57:28.840Z,54.94
2023-04-16T13:02:32.584Z,56.75
2023-04-16T13:07:37.608Z,54.66
2023-04-16T13:12:41.111Z,56.29
2023-04-16T13:17:44.572Z,54.13
2023-04-16T13:22:49.362Z,56.09
2023-04-16T13:27:53.165Z,54.85
2023-04-16T13:32:57.059Z,55.98
2023-04-16T13:38:01.869Z,57.39
2023-04-16T13:43:07.622Z,55.20
2023-04-16T13:48:11.348Z,56.95
2023-04-16T13:53:16.413Z,59.04
2023-04-16T13:58:20.255Z,58.23
2023-04-16T14:03:23.826Z,58.10
2023-04-16T14:08:28.901Z,57.97
2023-04-16T14:13:32.510Z,57.23
2023-04-16T14:18:35.986Z,59.18
2023-04-16T14:23:41.207Z,60.25
2023-04-16T14:28:44.577Z,60.01
2023-04-16T14:33:48.017Z,63.48
2023-04-16T14:38:52.921Z,66.33
2023-04-16T14:43:56.359Z,67.89
2023-04-16T14:48:59.867Z,68.86
2023-04-16T14:54:04.837Z,68.56
2023-04-16T14:59:08.444Z,68.87
2023-04-16T15:04:12.448Z,69.92
2023-04-16T15:09:17.694Z,70.09
2023-04-16T15:14:21.185Z,71.03
2023-04-16T15:19:24.691Z,71.79
2023-04-16T15:24:29.629Z,72.04
2023-04-16T15:29:33.133Z,71.58
2023-04-16T15:34:36.671Z,72.08
2023-04-16T15:39:41.512Z,72.60
2023-04-16T15:44:45.011Z,72.47
2023-04-16T15:49:48.803Z,73.67
2023-04-16T15:54:53.840Z,73.73
2023-04-16T16:00:06.456Z,74.49
2023-04-16T16:05:11.993Z,75.03
2023-04-16T16:10:17.262Z,75.01
2023-04-16T16:15:21.699Z,75.64
2023-04-16T16:20:25.721Z,77.01
2023-04-16T16:25:30.575Z,77.17
2023-04-16T16:30:34.060Z,76.42
2023-04-16T16:35:37.477Z,77.19
2023-04-16T16:40:42.619Z,78.08
2023-04-16T16:45:46.595Z,78.52
2023-04-16T16:50:50.083Z,78.48
2023-04-16T16:55:55.394Z,79.45
2023-04-16T17:00:58.861Z,79.40
2023-04-16T17:06:02.593Z,79.60
2023-04-16T17:11:07.759Z,80.15
2023-04-16T17:16:11.459Z,80.25
2023-04-16T17:21:16.496Z,80.99
2023-04-16T17:26:22.511Z,81.47
2023-04-16T17:31:27.414Z,81.52
2023-04-16T17:36:31.472Z,82.15
2023-04-16T17:41:36.369Z,82.29
2023-04-16T17:46:39.788Z,83.55
2023-04-16T17:51:44.667Z,85.29
2023-04-16T17:56:49.888Z,85.94
2023-04-16T18:01:53.465Z,86.40
2023-04-16T18:06:57.203Z,86.00
2023-04-16T18:12:03.018Z,85.35
2023-04-16T18:17:06.831Z,85.95
2023-04-16T18:22:11.067Z,86.39
2023-04-16T18:27:15.838Z,87.15
2023-04-16T18:32:19.736Z,86.94
2023-04-16T18:37:23.693Z,86.67
2023-04-16T18:42:29.444Z,86.58
2023-04-16T18:47:34.734Z,86.02
2023-04-16T18:52:38.457Z,85.49
2023-04-16T18:57:44.003Z,85.42
2023-04-16T19:02:47.822Z,85.19
2023-04-16T19:07:51.772Z,85.34
2023-04-16T19:12:58.034Z,85.49
2023-04-16T19:18:02.141Z,85.17
2023-04-16T19:23:08.954Z,85.83
2023-04-16T19:28:14.916Z,86.36
2023-04-16T19:33:18.446Z,87.89
2023-04-16T19:38:22.109Z,88.34
2023-04-16T19:43:28.415Z,89.25
2023-04-16T19:48:33.825Z,89.76
2023-04-16T19:53:37.538Z,90.22
2023-04-16T19:58:42.335Z,90.04
2023-04-16T20:03:46.299Z,89.82
2023-04-16T20:08:49.867Z,90.11
2023-04-16T20:13:54.719Z,91.10
2023-04-16T20:19:03.623Z,90.76
2023-04-16T20:24:10.679Z,90.81
2023-04-16T20:29:15.826Z,91.42
2023-04-16T20:34:19.632Z,91.34
2023-04-16T20:39:23.296Z,90.79
2023-04-16T20:44:33.427Z,90.97
2023-04-16T20:49:38.399Z,91.80
2023-04-16T20:54:42.240Z,92.79
2023-04-16T20:59:47.206Z,92.78
2023-04-16T21:04:50.915Z,92.85
2023-04-16T21:09:54.512Z,93.60
2023-04-16T21:14:59.878Z,93.14
2023-04-16T21:20:03.741Z,92.59
2023-04-16T21:25:08.268Z,92.17
2023-04-16T21:30:14.883Z,92.72
2023-04-16T21:35:18.856Z,93.62
2023-04-16T21:40:23.944Z,94.00
2023-04-16T21:45:30.463Z,94.59
2023-04-16T21:50:34.065Z,94.76
2023-04-16T21:55:37.906Z,95.38
2023-04-16T22:00:42.790Z,95.47
2023-04-16T22:05:46.376Z,95.29
2023-04-16T22:10:50.281Z,95.81
2023-04-16T22:15:57.823Z,96.22
2023-04-16T22:21:01.662Z,95.25
2023-04-16T22:26:05.124Z,95.17
2023-04-16T22:31:10.324Z,94.77
2023-04-16T22:36:14.065Z,94.43
2023-04-16T22:41:17.851Z,94.80
2023-04-16T22:46:24.804Z,94.40
2023-04-16T22:51:29.057Z,94.23
2023-04-16T22:56:32.625Z,94.56
2023-04-16T23:01:37.587Z,95.46
2023-04-16T23:06:42.159Z,95.32
2023-04-16T23:11:45.873Z,95.34
2023-04-16T23:16:50.690Z,95.68
2023-04-16T23:21:54.392Z,95.73
2023-04-16T23:26:58.040Z,96.56
2023-04-16T23:32:03.185Z,96.61
2023-04-16T23:37:06.732Z,96.66
2023-04-16T23:42:10.231Z,96.80
2023-04-16T23:47:15.113Z,97.15
2023-04-16T23:52:18.579Z,96.96
2023-04-16T23:57:22.064Z,96.51
